Time;durP1;ratioP1;P1;durP2;ratioP2;P2;SDS_P1;SDS_P2;PMS_P1;PMS_P2;Temp;Humidity;BMP_temperature;BMP_pressure;BME280_temperature;BME280_humidity;BME280_pressure;Samples;Min_cycle;Max_cycle;Signal;HPM_P1;HPM_P2
2022/01/09 00:00:27;;;;;;;21.13;3.05;;;;;;;-145.82;100.00;61645.16;4964645;28;20049;-70
2022/01/09 00:02:53;;;;;;;23.08;2.92;;;;;;;-145.82;100.00;61645.16;4958345;28;20046;-73
2022/01/09 00:05:19;;;;;;;30.88;2.97;;;;;;;-145.82;100.00;61645.16;4965674;28;20521;-71
2022/01/09 00:07:45;;;;;;;4.15;2.85;;;;;;;-145.82;100.00;61645.16;4962776;28;20125;-70
2022/01/09 00:10:11;;;;;;;46.80;2.58;;;;;;;-145.82;100.00;61645.16;4961551;28;20438;-71
2022/01/09 00:12:37;;;;;;;24.08;2.85;;;;;;;-145.82;100.00;61645.16;4962995;28;20191;-71
2022/01/09 00:15:04;;;;;;;60.85;4.60;;;;;;;-145.82;100.00;61645.16;4963623;28;20038;-70
2022/01/09 00:17:29;;;;;;;17.50;3.28;;;;;;;-145.82;100.00;61645.16;4963230;28;20049;-72
2022/01/09 00:19:55;;;;;;;17.08;2.88;;;;;;;-145.82;100.00;61645.16;4964067;28;20394;-70
2022/01/09 00:22:30;;;;;;;15.93;3.10;;;;;;;-145.82;100.00;61645.16;4961245;28;20070;-70
2022/01/09 00:24:56;;;;;;;7.75;3.05;;;;;;;-145.82;100.00;61645.16;4964878;28;20045;-71
2022/01/09 00:27:21;;;;;;;8.70;2.42;;;;;;;-145.82;100.00;61645.16;4962052;28;20050;-70
2022/01/09 00:29:47;;;;;;;16.25;1.92;;;;;;;-145.82;100.00;61645.16;4964138;28;20053;-72
2022/01/09 00:32:12;;;;;;;8.77;2.95;;;;;;;-145.82;100.00;61645.16;4963401;28;20490;-71
2022/01/09 00:34:40;;;;;;;14.25;2.40;;;;;;;-145.82;100.00;61645.16;4967230;28;20169;-71
2022/01/09 00:37:05;;;;;;;4.53;3.00;;;;;;;-145.82;100.00;61645.16;4963580;28;20193;-73
2022/01/09 00:39:31;;;;;;;12.05;4.25;;;;;;;-145.82;100.00;61645.16;4964413;28;20046;-70
2022/01/09 00:41:57;;;;;;;6.93;2.17;;;;;;;-145.82;100.00;61645.16;4965730;28;20497;-72
2022/01/09 00:44:22;;;;;;;4.03;2.78;;;;;;;-145.82;100.00;61645.16;4964414;28;20480;-71
2022/01/09 00:46:48;;;;;;;11.88;2.17;;;;;;;-145.82;100.00;61645.16;4963182;28;20034;-70
2022/01/09 00:49:13;;;;;;;3.58;1.98;;;;;;;-145.82;100.00;61645.16;4963598;28;20049;-72
2022/01/09 00:51:39;;;;;;;3.95;2.03;;;;;;;-145.82;100.00;61645.16;4964169;28;20473;-72
2022/01/09 00:54:04;;;;;;;4.75;2.60;;;;;;;-145.82;100.00;61645.16;4962676;28;20049;-72
2022/01/09 00:56:30;;;;;;;3.58;2.00;;;;;;;-145.82;100.00;61645.16;4964022;28;20536;-71
2022/01/09 00:58:55;;;;;;;2.85;1.77;;;;;;;-145.82;100.00;61645.16;4964688;28;20045;-70
2022/01/09 01:01:20;;;;;;;3.28;1.92;;;;;;;-145.82;100.00;61645.16;4964309;28;20046;-71
2022/01/09 01:03:46;;;;;;;2.20;1.20;;;;;;;-145.82;100.00;61645.16;4980276;28;20130;-73
2022/01/09 01:06:13;;;;;;;3.38;1.73;;;;;;;-145.82;100.00;61645.16;4965510;28;20043;-71
2022/01/09 01:08:38;;;;;;;2.13;1.13;;;;;;;-145.82;100.00;61645.16;4966744;28;20077;-71
2022/01/09 01:11:04;;;;;;;4.22;2.55;;;;;;;-145.82;100.00;61645.16;4968590;28;21160;-71
2022/01/09 01:13:30;;;;;;;3.22;1.65;;;;;;;-145.82;100.00;61645.16;4967052;28;20544;-72
2022/01/09 01:15:56;;;;;;;3.00;1.67;;;;;;;-145.82;100.00;61645.16;4968691;28;20134;-71
2022/01/09 01:18:22;;;;;;;6.05;2.75;;;;;;;-145.82;100.00;61645.16;4968018;28;20030;-72
2022/01/09 01:20:47;;;;;;;3.47;1.40;;;;;;;-145.82;100.00;61645.16;4970015;28;20073;-71
2022/01/09 01:23:16;;;;;;;2.70;1.58;;;;;;;-145.82;100.00;61645.16;4965321;28;20043;-71
2022/01/09 01:25:44;;;;;;;2.17;1.23;;;;;;;-145.82;100.00;61645.16;4967899;28;20042;-71
2022/01/09 01:28:09;;;;;;;2.78;1.77;;;;;;;-145.82;100.00;61645.16;4965627;28;20069;-70
2022/01/09 01:30:35;;;;;;;2.35;1.10;;;;;;;-145.82;100.00;61645.16;4964823;28;20050;-72
2022/01/09 01:33:01;;;;;;;2.78;1.55;;;;;;;-145.82;100.00;61645.16;4965852;28;20038;-71
2022/01/09 01:35:26;;;;;;;1.75;0.90;;;;;;;-145.82;100.00;61645.16;4967893;28;20039;-72
2022/01/09 01:37:51;;;;;;;2.67;1.13;;;;;;;-145.82;100.00;61645.16;4967335;28;20078;-70
2022/01/09 01:40:18;;;;;;;1.67;0.90;;;;;;;-145.82;100.00;61645.16;4966477;28;20029;-72
2022/01/09 01:42:46;;;;;;;1.98;1.10;;;;;;;-145.82;100.00;61645.16;4966970;28;20629;-70
2022/01/09 01:45:12;;;;;;;1.98;1.00;;;;;;;-145.82;100.00;61645.16;4968376;28;20358;-70
2022/01/09 01:47:37;;;;;;;2.20;1.15;;;;;;;-145.82;100.00;61645.16;4965482;28;20548;-73
2022/01/09 01:50:05;;;;;;;2.10;0.98;;;;;;;-145.82;100.00;61645.16;4964960;28;20330;-70
2022/01/09 01:52:36;;;;;;;2.30;1.27;;;;;;;-145.82;100.00;61645.16;4966444;28;20038;-70
2022/01/09 01:55:06;;;;;;;1.88;0.75;;;;;;;-145.82;100.00;61645.16;4966420;28;20038;-71
2022/01/09 01:57:32;;;;;;;2.75;1.40;;;;;;;-145.82;100.00;61645.16;4966673;28;20078;-71
2022/01/09 01:59:58;;;;;;;1.70;0.85;;;;;;;-145.82;100.00;61645.16;4966167;28;20169;-71
2022/01/09 02:02:25;;;;;;;2.22;0.80;;;;;;;-145.82;100.00;61645.16;4967912;28;20486;-72
2022/01/09 02:04:51;;;;;;;2.25;1.10;;;;;;;-145.82;100.00;61645.16;4970344;28;20042;-72
2022/01/09 02:07:17;;;;;;;3.78;1.17;;;;;;;-145.82;100.00;61645.16;4967067;28;20062;-71
2022/01/09 02:09:44;;;;;;;1.90;0.80;;;;;;;-145.82;100.00;61645.16;4969362;28;20042;-70
2022/01/09 02:12:10;;;;;;;1.65;1.00;;;;;;;-145.82;100.00;61645.16;4966742;28;20311;-72
2022/01/09 02:14:37;;;;;;;1.38;0.70;;;;;;;-145.82;100.00;61645.16;4967627;28;20474;-71
2022/01/09 02:17:04;;;;;;;1.58;0.95;;;;;;;-145.82;100.00;61645.16;4963401;28;20045;-71
2022/01/09 02:19:30;;;;;;;1.85;0.93;;;;;;;-145.82;100.00;61645.16;4964012;28;20461;-71
2022/01/09 02:21:56;;;;;;;1.55;0.80;;;;;;;-145.82;100.00;61645.16;4968435;28;20094;-71
2022/01/09 02:24:23;;;;;;;1.50;0.63;;;;;;;-145.82;100.00;61645.16;4965947;28;20047;-73
2022/01/09 02:26:49;;;;;;;0.75;0.50;;;;;;;-145.82;100.00;61645.16;4965985;28;20070;-70
2022/01/09 02:29:15;;;;;;;1.27;0.70;;;;;;;-145.82;100.00;61645.16;4966624;28;20047;-72
2022/01/09 02:31:42;;;;;;;6.50;2.28;;;;;;;-145.82;100.00;61645.16;4966736;28;20043;-72
2022/01/09 02:34:08;;;;;;;1.85;0.68;;;;;;;-145.82;100.00;61645.16;4966210;28;20043;-72
2022/01/09 02:36:34;;;;;;;3.13;1.25;;;;;;;-145.82;100.00;61645.16;4965907;28;20039;-70
2022/01/09 02:39:00;;;;;;;1.60;0.77;;;;;;;-145.82;100.00;61645.16;4965472;28;20034;-70
2022/01/09 02:41:26;;;;;;;1.00;0.60;;;;;;;-145.82;100.00;61645.16;4966520;28;20046;-70
2022/01/09 02:43:51;;;;;;;1.42;0.68;;;;;;;-145.82;100.00;61645.16;4967820;28;20031;-70
2022/01/09 02:46:35;;;;;;;2.05;0.65;;;;;;;-145.82;100.00;61645.16;4964708;28;20113;-71
2022/01/09 02:49:05;;;;;;;1.88;0.85;;;;;;;-145.82;100.00;61645.16;4966895;28;20492;-71
2022/01/09 02:51:31;;;;;;;1.92;0.80;;;;;;;-145.82;100.00;61645.16;4966042;28;20412;-71
2022/01/09 02:54:12;;;;;;;1.63;0.77;;;;;;;-145.82;100.00;61645.16;4961803;28;20066;-72
2022/01/09 02:56:38;;;;;;;;;;;;;;;-145.82;100.00;61645.16;4966294;28;20050;-70
2022/01/09 02:59:03;;;;;;;1.73;0.75;;;;;;;-145.82;100.00;61645.16;4964523;28;19922;-72
2022/01/09 03:01:29;;;;;;;0.90;0.50;;;;;;;-145.82;100.00;61645.16;4963837;28;20054;-73
2022/01/09 03:03:54;;;;;;;1.80;0.60;;;;;;;-145.82;100.00;61645.16;4967738;28;20440;-70
2022/01/09 03:06:20;;;;;;;1.55;0.55;;;;;;;-145.82;100.00;61645.16;4966345;28;20050;-70
2022/01/09 03:08:45;;;;;;;1.55;0.60;;;;;;;-145.82;100.00;61645.16;4966289;28;20041;-70
2022/01/09 03:11:10;;;;;;;0.50;0.30;;;;;;;-145.82;100.00;61645.16;4965769;28;20050;-70
2022/01/09 03:13:36;;;;;;;1.83;0.60;;;;;;;-145.82;100.00;61645.16;4964923;28;20492;-70
2022/01/09 03:16:02;;;;;;;1.67;0.65;;;;;;;-145.82;100.00;61645.16;4965363;28;20373;-70
2022/01/09 03:18:27;;;;;;;0.80;0.40;;;;;;;-145.82;100.00;61645.16;4965685;28;20593;-71
2022/01/09 03:20:53;;;;;;;1.15;0.50;;;;;;;-145.82;100.00;61645.16;4964206;28;20104;-71
2022/01/09 03:23:18;;;;;;;2.20;0.75;;;;;;;-145.82;100.00;61645.16;4963587;28;20397;-71
2022/01/09 03:25:44;;;;;;;2.30;0.80;;;;;;;-145.82;100.00;61645.16;4965040;28;20042;-73
2022/01/09 03:28:09;;;;;;;1.67;0.60;;;;;;;-145.82;100.00;61645.16;4962209;28;20051;-72
2022/01/09 03:30:35;;;;;;;0.32;0.22;;;;;;;-145.82;100.00;61645.16;4965669;28;20050;-70
2022/01/09 03:33:00;;;;;;;0.88;0.47;;;;;;;-145.82;100.00;61645.16;4964653;28;20054;-70
2022/01/09 03:35:27;;;;;;;0.32;0.30;;;;;;;-145.82;100.00;61645.16;4964449;28;20138;-70
2022/01/09 03:37:53;;;;;;;1.50;0.47;;;;;;;-145.82;100.00;61645.16;4964540;28;20034;-73
2022/01/09 03:40:22;;;;;;;0.95;0.50;;;;;;;-145.82;100.00;61645.16;4964400;28;20046;-70
2022/01/09 03:42:51;;;;;;;0.40;0.30;;;;;;;-145.82;100.00;61645.16;4963623;28;20529;-70
2022/01/09 03:45:17;;;;;;;0.28;0.20;;;;;;;-145.82;100.00;61645.16;4964516;28;20038;-70
2022/01/09 03:47:43;;;;;;;1.02;0.40;;;;;;;-145.82;100.00;61645.16;4963267;28;20046;-70
2022/01/09 03:50:11;;;;;;;0.50;0.28;;;;;;;-145.82;100.00;61645.16;4966612;28;20090;-70
2022/01/09 03:52:38;;;;;;;0.57;0.40;;;;;;;-145.82;100.00;61645.16;4965468;28;20445;-71
2022/01/09 03:55:06;;;;;;;0.28;0.28;;;;;;;-145.82;100.00;61645.16;4978043;28;20046;-73
2022/01/09 03:57:32;;;;;;;0.30;0.20;;;;;;;-145.82;100.00;61645.16;4963060;28;20039;-71
2022/01/09 03:59:57;;;;;;;0.20;0.20;;;;;;;-145.82;100.00;61645.16;4966369;28;20391;-70
2022/01/09 04:02:23;;;;;;;0.28;0.28;;;;;;;-145.82;100.00;61645.16;4963299;28;20042;-70
2022/01/09 04:04:48;;;;;;;7.60;0.50;;;;;;;-145.82;100.00;61645.16;4965298;28;20050;-70
2022/01/09 04:07:16;;;;;;;1.23;0.38;;;;;;;-145.82;100.00;61645.16;4963234;28;20484;-71
2022/01/09 04:09:44;;;;;;;0.32;0.30;;;;;;;-145.82;100.00;61645.16;4979872;28;20062;-71
2022/01/09 04:12:17;;;;;;;0.20;0.20;;;;;;;-145.82;100.00;61645.16;4963370;28;20506;-72
2022/01/09 04:14:45;;;;;;;0.70;0.30;;;;;;;-145.82;100.00;61645.16;4964468;28;20038;-71
2022/01/09 04:17:17;;;;;;;0.13;0.13;;;;;;;-145.82;100.00;61645.16;4961442;28;20126;-71
2022/01/09 04:19:43;;;;;;;0.25;0.25;;;;;;;-145.82;100.00;61645.16;4965097;28;20039;-70
2022/01/09 04:22:09;;;;;;;0.20;0.20;;;;;;;-145.82;100.00;61645.16;4977241;28;20077;-72
2022/01/09 04:24:34;;;;;;;0.43;0.30;;;;;;;-145.82;100.00;61645.16;4963442;28;20433;-71
2022/01/09 04:27:00;;;;;;;0.40;0.30;;;;;;;-145.82;100.00;61645.16;4962710;28;20069;-70
2022/01/09 04:29:25;;;;;;;0.20;0.20;;;;;;;-145.82;100.00;61645.16;4964096;28;20404;-70
2022/01/09 04:31:51;;;;;;;0.75;0.40;;;;;;;-145.82;100.00;61645.16;4963835;28;20047;-70
2022/01/09 04:34:16;;;;;;;0.10;0.10;;;;;;;-145.82;100.00;61645.16;4963032;28;20049;-71
2022/01/09 04:36:42;;;;;;;0.20;0.20;;;;;;;-145.82;100.00;61645.16;4963068;28;20937;-71
2022/01/09 04:39:07;;;;;;;0.30;0.25;;;;;;;-145.82;100.00;61645.16;4964144;28;20050;-70
2022/01/09 04:41:33;;;;;;;0.32;0.25;;;;;;;-145.82;100.00;61645.16;4964295;28;20035;-72
2022/01/09 04:43:58;;;;;;;0.17;0.17;;;;;;;-145.82;100.00;61645.16;4964424;28;20038;-71
2022/01/09 04:46:32;;;;;;;0.57;0.30;;;;;;;-145.82;100.00;61645.16;4962944;28;20074;-72
2022/01/09 04:48:58;;;;;;;0.40;0.30;;;;;;;-145.82;100.00;61645.16;4966152;28;20294;-70
2022/01/09 04:51:23;;;;;;;0.45;0.30;;;;;;;-145.82;100.00;61645.16;4965052;28;20066;-71
2022/01/09 04:53:49;;;;;;;0.30;0.30;;;;;;;-145.82;100.00;61645.16;4965774;28;20039;-72
2022/01/09 04:56:15;;;;;;;0.30;0.30;;;;;;;-145.82;100.00;61645.16;4966130;28;20039;-70
2022/01/09 04:58:40;;;;;;;0.20;0.20;;;;;;;-145.82;100.00;61645.16;4966712;28;20043;-71
2022/01/09 05:01:06;;;;;;;0.20;0.20;;;;;;;-145.82;100.00;61645.16;4963993;28;20055;-71
2022/01/09 05:03:32;;;;;;;0.55;0.35;;;;;;;-145.82;100.00;61645.16;4978139;28;20061;-70
2022/01/09 05:05:57;;;;;;;0.30;0.20;;;;;;;-145.82;100.00;61645.16;4963825;28;20043;-72
2022/01/09 05:08:22;;;;;;;0.30;0.20;;;;;;;-145.82;100.00;61645.16;4977656;28;20034;-70
2022/01/09 05:10:48;;;;;;;0.60;0.30;;;;;;;-145.82;100.00;61645.16;4965393;28;20123;-71
2022/01/09 05:13:14;;;;;;;0.57;0.40;;;;;;;-145.82;100.00;61645.16;4977664;28;20041;-72
2022/01/09 05:15:39;;;;;;;1.25;0.57;;;;;;;-145.82;100.00;61645.16;4964311;28;20089;-70
2022/01/09 05:18:12;;;;;;;13.73;0.93;;;;;;;-145.82;100.00;61645.16;4961681;28;20045;-71
2022/01/09 05:20:37;;;;;;;10.68;0.98;;;;;;;-145.82;100.00;61645.16;4963342;28;20046;-71
2022/01/09 05:23:03;;;;;;;0.95;0.50;;;;;;;-145.82;100.00;61645.16;4962696;28;20294;-72
2022/01/09 05:25:29;;;;;;;0.30;0.30;;;;;;;-145.82;100.00;61645.16;4966204;28;20046;-70
2022/01/09 05:27:54;;;;;;;11.13;0.63;;;;;;;-145.82;100.00;61645.16;4961428;28;20045;-70
2022/01/09 05:30:20;;;;;;;18.83;0.85;;;;;;;-145.82;100.00;61645.16;4963413;28;20453;-70
2022/01/09 05:32:45;;;;;;;6.10;0.50;;;;;;;-145.82;100.00;61645.16;4963285;28;20042;-71
2022/01/09 05:35:11;;;;;;;1.08;0.43;;;;;;;-145.82;100.00;61645.16;4962882;28;20046;-70
2022/01/09 05:37:37;;;;;;;0.45;0.30;;;;;;;-145.82;100.00;61645.16;4962719;28;20045;-70
2022/01/09 05:40:02;;;;;;;0.63;0.32;;;;;;;-145.82;100.00;61645.16;4964162;28;20038;-73
2022/01/09 05:42:28;;;;;;;3.28;0.25;;;;;;;-145.82;100.00;61645.16;4960538;28;20043;-70
2022/01/09 05:44:54;;;;;;;0.90;0.50;;;;;;;-145.82;100.00;61645.16;4964274;28;20506;-71
2022/01/09 05:47:20;;;;;;;2.22;0.40;;;;;;;-145.82;100.00;61645.16;4963834;28;20054;-73
2022/01/09 05:49:45;;;;;;;0.22;0.20;;;;;;;-145.82;100.00;61645.16;4965848;28;20125;-70
2022/01/09 05:52:11;;;;;;;1.00;0.20;;;;;;;-145.82;100.00;61645.16;4961525;28;20486;-70
2022/01/09 05:54:37;;;;;;;0.20;0.20;;;;;;;-145.82;100.00;61645.16;4967444;28;20046;-70
2022/01/09 05:57:02;;;;;;;75.25;2.53;;;;;;;-145.82;100.00;61645.16;4966502;28;20046;-70
2022/01/09 05:59:28;;;;;;;40.05;1.92;;;;;;;-145.82;100.00;61645.16;4966604;28;20401;-71
2022/01/09 06:01:55;;;;;;;0.43;0.40;;;;;;;-145.82;100.00;61645.16;4964475;28;20247;-71
2022/01/09 06:04:20;;;;;;;1.77;0.40;;;;;;;-145.82;100.00;61645.16;4967923;28;20093;-71
2022/01/09 06:06:46;;;;;;;1.48;0.90;;;;;;;-145.82;100.00;61645.16;4966088;28;20117;-72
2022/01/09 06:09:12;;;;;;;3.67;1.55;;;;;;;-145.82;100.00;61645.16;4983682;28;20046;-71
2022/01/09 06:11:37;;;;;;;5.15;1.92;;;;;;;-145.82;100.00;61645.16;4970801;28;20069;-70
2022/01/09 06:14:03;;;;;;;3.60;2.17;;;;;;;-145.82;100.00;61645.16;4970576;28;20094;-71
2022/01/09 06:16:28;;;;;;;10.32;4.47;;;;;;;-145.82;100.00;61645.16;4966941;28;20570;-71
2022/01/09 06:18:54;;;;;;;13.60;3.33;;;;;;;-145.82;100.00;61645.16;4965269;28;20994;-70
2022/01/09 06:21:20;;;;;;;10.30;3.88;;;;;;;-145.82;100.00;61645.16;4966343;28;20278;-70
2022/01/09 06:23:45;;;;;;;15.18;3.78;;;;;;;-145.82;100.00;61645.16;4966370;28;20066;-72
2022/01/09 06:26:11;;;;;;;19.85;4.40;;;;;;;-145.82;100.00;61645.16;4965654;28;20058;-70
2022/01/09 06:28:36;;;;;;;19.02;2.22;;;;;;;-145.82;100.00;61645.16;4968381;28;20043;-72
2022/01/09 06:31:02;;;;;;;12.73;3.97;;;;;;;-145.82;100.00;61645.16;4969134;28;20045;-70
2022/01/09 06:33:27;;;;;;;5.00;1.95;;;;;;;-145.82;100.00;61645.16;4967338;28;20669;-70
2022/01/09 06:35:53;;;;;;;10.70;3.80;;;;;;;-145.82;100.00;61645.16;4964879;28;20093;-71
2022/01/09 06:38:18;;;;;;;4.65;1.77;;;;;;;-145.82;100.00;61645.16;4966501;28;20137;-70
2022/01/09 06:40:44;;;;;;;5.38;1.73;;;;;;;-145.82;100.00;61645.16;4965107;28;20089;-72
2022/01/09 06:43:09;;;;;;;10.52;3.53;;;;;;;-145.82;100.00;61645.16;4965116;28;20093;-71
2022/01/09 06:45:35;;;;;;;11.88;1.90;;;;;;;-145.82;100.00;61645.16;4968475;28;20046;-72
2022/01/09 06:48:02;;;;;;;10.00;2.80;;;;;;;-145.82;100.00;61645.16;4964010;28;20049;-73
2022/01/09 06:50:28;;;;;;;12.93;3.42;;;;;;;-145.82;100.00;61645.16;4966406;28;20042;-70
2022/01/09 06:52:53;;;;;;;8.52;2.63;;;;;;;-145.82;100.00;61645.16;4964475;28;20101;-70
2022/01/09 06:55:19;;;;;;;11.27;2.53;;;;;;;-145.82;100.00;61645.16;4966061;28;20057;-71
2022/01/09 06:57:45;;;;;;;7.70;2.13;;;;;;;-145.82;100.00;61645.16;4965415;28;20045;-72
2022/01/09 07:00:13;;;;;;;7.80;2.50;;;;;;;-145.82;100.00;61645.16;4968982;28;20123;-70
2022/01/09 07:02:38;;;;;;;15.50;4.07;;;;;;;-145.82;100.00;61645.16;4964531;28;20602;-70
2022/01/09 07:05:05;;;;;;;16.23;2.88;;;;;;;-145.82;100.00;61645.16;4965556;28;20092;-70
2022/01/09 07:07:30;;;;;;;6.60;2.72;;;;;;;-145.82;100.00;61645.16;4962275;28;20038;-71
2022/01/09 07:09:56;;;;;;;4.82;1.73;;;;;;;-145.82;100.00;61645.16;4963349;28;20431;-71
2022/01/09 07:12:22;;;;;;;21.02;2.83;;;;;;;-145.82;100.00;61645.16;4963189;28;20042;-71
2022/01/09 07:14:47;;;;;;;12.18;2.58;;;;;;;-145.82;100.00;61645.16;4963026;28;20113;-72
2022/01/09 07:17:13;;;;;;;11.45;2.55;;;;;;;-145.82;100.00;61645.16;4961217;28;20038;-70
2022/01/09 07:19:39;;;;;;;9.13;2.47;;;;;;;-145.82;100.00;61645.16;4963222;28;20051;-71
2022/01/09 07:22:05;;;;;;;2.75;0.90;;;;;;;-145.82;100.00;61645.16;4962519;28;20043;-70
2022/01/09 07:24:32;;;;;;;5.93;1.92;;;;;;;-145.82;100.00;61645.16;4963337;28;20042;-73
2022/01/09 07:26:58;;;;;;;5.57;2.22;;;;;;;-145.82;100.00;61645.16;4962934;28;20043;-71
2022/01/09 07:29:24;;;;;;;4.30;1.17;;;;;;;-145.82;100.00;61645.16;4965247;28;20059;-71
2022/01/09 07:31:51;;;;;;;4.07;1.73;;;;;;;-145.82;100.00;61645.16;4962557;28;20534;-72
2022/01/09 07:34:20;;;;;;;15.30;4.07;;;;;;;-145.82;100.00;61645.16;4962494;28;20119;-71
2022/01/09 07:36:47;;;;;;;14.55;3.15;;;;;;;-145.82;100.00;61645.16;4962319;28;20224;-73
2022/01/09 07:39:13;;;;;;;10.75;2.80;;;;;;;-145.82;100.00;61645.16;4962232;28;20104;-70
2022/01/09 07:41:39;;;;;;;8.18;2.92;;;;;;;-145.82;100.00;61645.16;4962660;28;20389;-71
2022/01/09 07:44:05;;;;;;;2.58;1.00;;;;;;;-145.82;100.00;61645.16;4962896;28;20093;-71
2022/01/09 07:46:30;;;;;;;13.18;2.17;;;;;;;-145.82;100.00;61645.16;4961874;28;20042;-73
2022/01/09 07:48:56;;;;;;;6.43;2.03;;;;;;;-145.82;100.00;61645.16;4961997;28;20053;-72
2022/01/09 07:51:22;;;;;;;3.92;1.83;;;;;;;-145.82;100.00;61645.16;4964383;28;20426;-71
2022/01/09 07:53:47;;;;;;;2.78;0.88;;;;;;;-145.82;100.00;61645.16;4962990;28;20043;-70
2022/01/09 07:56:13;;;;;;;12.98;3.15;;;;;;;-145.82;100.00;61645.16;4961809;28;20141;-71
2022/01/09 07:58:39;;;;;;;8.43;2.13;;;;;;;-145.82;100.00;61645.16;4962829;28;20038;-71
2022/01/09 08:01:05;;;;;;;5.03;1.48;;;;;;;-145.82;100.00;61645.16;4958918;28;20046;-71
2022/01/09 08:03:31;;;;;;;5.65;2.08;;;;;;;-145.82;100.00;61645.16;4963274;28;20050;-71
2022/01/09 08:05:56;;;;;;;4.60;1.83;;;;;;;-145.82;100.00;61645.16;4962087;28;20042;-70
2022/01/09 08:08:22;;;;;;;5.75;1.63;;;;;;;-145.82;100.00;61645.16;4961512;28;20553;-70
2022/01/09 08:10:47;;;;;;;3.28;1.05;;;;;;;-145.82;100.00;61645.16;4962782;28;20038;-72
2022/01/09 08:13:13;;;;;;;2.55;1.38;;;;;;;-145.82;100.00;61645.16;4961748;28;20385;-71
2022/01/09 08:15:38;;;;;;;6.53;2.00;;;;;;;-145.82;100.00;61645.16;4960451;28;20044;-70
2022/01/09 08:18:06;;;;;;;11.80;1.92;;;;;;;-145.82;100.00;61645.16;4960718;28;20138;-70
2022/01/09 08:20:32;;;;;;;11.20;1.60;;;;;;;-145.82;100.00;61645.16;4961785;28;20393;-71
2022/01/09 08:22:58;;;;;;;9.52;1.73;;;;;;;-145.82;100.00;61645.16;4959748;28;20043;-71
2022/01/09 08:25:24;;;;;;;5.47;2.10;;;;;;;-145.82;100.00;61645.16;4963504;28;20440;-73
2022/01/09 08:27:49;;;;;;;4.65;2.05;;;;;;;-145.82;100.00;61645.16;4960233;28;20130;-71
2022/01/09 08:30:18;;;;;;;3.60;1.80;;;;;;;-145.82;100.00;61645.16;4958613;28;20086;-71
2022/01/09 08:32:44;;;;;;;9.90;2.05;;;;;;;-145.82;100.00;61645.16;4959502;28;20374;-72
2022/01/09 08:35:10;;;;;;;4.30;1.77;;;;;;;-145.82;100.00;61645.16;4960310;28;20057;-71
2022/01/09 08:37:36;;;;;;;7.95;1.65;;;;;;;-145.82;100.00;61645.16;4962186;28;20034;-71
2022/01/09 08:40:02;;;;;;;6.47;2.08;;;;;;;-145.82;100.00;61645.16;4961379;28;20049;-72
2022/01/09 08:42:28;;;;;;;12.10;2.08;;;;;;;-145.82;100.00;61645.16;4964599;28;20071;-70
2022/01/09 08:44:53;;;;;;;16.33;2.78;;;;;;;-145.82;100.00;61645.16;4962841;28;20042;-71
2022/01/09 08:47:19;;;;;;;8.13;1.88;;;;;;;-145.82;100.00;61645.16;4965033;28;20070;-71
2022/01/09 08:49:44;;;;;;;10.82;2.63;;;;;;;-145.82;100.00;61645.16;4962734;28;20035;-70
2022/01/09 08:52:09;;;;;;;11.80;2.63;;;;;;;-145.82;100.00;61645.16;4963474;28;20035;-71
2022/01/09 08:54:35;;;;;;;20.70;3.88;;;;;;;-145.82;100.00;61645.16;4966932;28;20050;-72
2022/01/09 08:57:01;;;;;;;18.02;2.78;;;;;;;-145.82;100.00;61645.16;4963310;28;20567;-70
2022/01/09 08:59:26;;;;;;;4.68;1.13;;;;;;;-145.82;100.00;61645.16;4963695;28;20046;-70
2022/01/09 09:01:53;;;;;;;11.05;2.10;;;;;;;-145.82;100.00;61645.16;4963075;28;20744;-70
2022/01/09 09:04:18;;;;;;;3.95;1.83;;;;;;;-145.82;100.00;61645.16;4964934;28;20479;-70
2022/01/09 09:06:45;;;;;;;2.47;1.00;;;;;;;-145.82;100.00;61645.16;4961896;28;20049;-70
2022/01/09 09:09:11;;;;;;;9.93;1.73;;;;;;;-145.82;100.00;61645.16;4962987;28;20066;-70
2022/01/09 09:11:38;;;;;;;6.25;1.98;;;;;;;-145.82;100.00;61645.16;4963199;28;20604;-71
2022/01/09 09:14:05;;;;;;;4.90;1.85;;;;;;;-145.82;100.00;61645.16;4962147;28;20126;-73
2022/01/09 09:16:31;;;;;;;5.18;1.95;;;;;;;-145.82;100.00;61645.16;4962328;28;20038;-70
2022/01/09 09:18:57;;;;;;;11.70;2.40;;;;;;;-145.82;100.00;61645.16;4976734;28;20033;-70
2022/01/09 09:21:22;;;;;;;17.98;2.10;;;;;;;-145.82;100.00;61645.16;4962907;28;20034;-71
2022/01/09 09:23:48;;;;;;;4.30;1.48;;;;;;;-145.82;100.00;61645.16;4963085;28;20421;-73
2022/01/09 09:26:16;;;;;;;9.88;1.90;;;;;;;-145.82;100.00;61645.16;4962201;28;20057;-71
2022/01/09 09:28:42;;;;;;;6.72;1.92;;;;;;;-145.82;100.00;61645.16;4966239;28;20053;-72
2022/01/09 09:31:08;;;;;;;14.38;2.22;;;;;;;-145.82;100.00;61645.16;4966060;28;20115;-70
2022/01/09 09:33:34;;;;;;;12.07;2.60;;;;;;;-145.82;100.00;61645.16;4966273;28;20039;-74
2022/01/09 09:36:02;;;;;;;4.07;1.52;;;;;;;-145.82;100.00;61645.16;4965682;28;20120;-73
2022/01/09 09:38:29;;;;;;;8.55;2.40;;;;;;;-145.82;100.00;61645.16;4966758;28;20101;-70
2022/01/09 09:40:55;;;;;;;9.43;2.03;;;;;;;-145.82;100.00;61645.16;4964523;28;20078;-73
2022/01/09 09:43:21;;;;;;;8.85;2.03;;;;;;;-145.82;100.00;61645.16;4965665;28;20604;-70
2022/01/09 09:45:47;;;;;;;6.30;1.60;;;;;;;-145.82;100.00;61645.16;4963002;28;20038;-71
2022/01/09 09:48:12;;;;;;;8.18;1.83;;;;;;;-145.82;100.00;61645.16;4959979;28;20165;-71
2022/01/09 09:50:38;;;;;;;5.97;1.38;;;;;;;-145.82;100.00;61645.16;4964902;28;20482;-73
2022/01/09 09:53:04;;;;;;;8.23;1.77;;;;;;;-145.82;100.00;61645.16;4966295;28;20429;-71
2022/01/09 09:55:30;;;;;;;12.85;2.47;;;;;;;-145.82;100.00;61645.16;4966605;28;20047;-70
2022/01/09 09:57:56;;;;;;;6.88;1.55;;;;;;;-145.82;100.00;61645.16;4964963;28;20072;-70
2022/01/09 10:00:21;;;;;;;8.45;1.60;;;;;;;-145.82;100.00;61645.16;4980532;28;20093;-71
2022/01/09 10:02:52;;;;;;;4.65;1.05;;;;;;;-145.82;100.00;61645.16;4964896;28;20086;-70
2022/01/09 10:05:20;;;;;;;2.55;1.17;;;;;;;-145.82;100.00;61645.16;4965919;28;20093;-71
2022/01/09 10:07:46;;;;;;;10.68;2.28;;;;;;;-145.82;100.00;61645.16;4962683;28;20053;-72
2022/01/09 10:10:15;;;;;;;7.03;1.88;;;;;;;-145.82;100.00;61645.16;4964285;28;20039;-72
2022/01/09 10:12:42;;;;;;;9.23;1.73;;;;;;;-145.82;100.00;61645.16;4964763;28;20101;-72
2022/01/09 10:15:12;;;;;;;3.63;1.35;;;;;;;-145.82;100.00;61645.16;4964056;28;20042;-70
2022/01/09 10:17:45;;;;;;;15.23;2.17;;;;;;;-145.82;100.00;61645.16;4963016;28;20039;-71
2022/01/09 10:20:17;;;;;;;9.50;2.15;;;;;;;-145.82;100.00;61645.16;4963833;28;20054;-70
2022/01/09 10:22:44;;;;;;;11.63;2.00;;;;;;;-145.82;100.00;61645.16;4963774;28;20241;-73
2022/01/09 10:25:27;;;;;;;3.95;1.30;;;;;;;-145.82;100.00;61645.16;4963853;28;20062;-70
2022/01/09 10:28:14;;;;;;;10.63;2.58;;;;;;;-145.82;100.00;61645.16;4961798;28;20042;-71
2022/01/09 10:30:49;;;;;;;8.93;1.35;;;;;;;-145.82;100.00;61645.16;4965033;28;20078;-71
2022/01/09 10:33:26;;;;;;;4.95;1.40;;;;;;;-145.82;100.00;61645.16;4963541;28;20125;-71
2022/01/09 10:35:51;;;;;;;6.18;1.45;;;;;;;-145.82;100.00;61645.16;4964387;28;20046;-72
2022/01/09 10:38:27;;;;;;;10.45;2.22;;;;;;;-145.82;100.00;61645.16;4962668;28;20027;-71
2022/01/09 10:41:03;;;;;;;8.60;2.15;;;;;;;-145.82;100.00;61645.16;4978799;28;20027;-73
2022/01/09 10:43:34;;;;;;;5.45;1.95;;;;;;;-145.82;100.00;61645.16;4965917;28;20043;-70
2022/01/09 10:46:01;;;;;;;10.27;1.73;;;;;;;-145.82;100.00;61645.16;4963367;28;20039;-72
2022/01/09 10:48:34;;;;;;;5.13;0.95;;;;;;;-145.82;100.00;61645.16;4962913;28;20042;-72
2022/01/09 10:51:02;;;;;;;4.97;0.80;;;;;;;-145.82;100.00;61645.16;4963924;28;20042;-73
2022/01/09 10:53:38;;;;;;;11.55;1.73;;;;;;;-145.82;100.00;61645.16;4963527;28;20510;-71
2022/01/09 10:56:21;;;;;;;8.63;2.13;;;;;;;-145.82;100.00;61645.16;4962942;28;20438;-70
2022/01/09 10:58:49;;;;;;;5.85;1.27;;;;;;;-145.82;100.00;61645.16;4963718;28;20497;-70
2022/01/09 11:01:26;;;;;;;6.93;1.13;;;;;;;-145.82;100.00;61645.16;4964676;28;20042;-70
2022/01/09 11:03:54;;;;;;;18.90;2.58;;;;;;;-145.82;100.00;61645.16;4964944;28;20043;-72